KAEL

Albert Lea Municipal Airport

Albert Lea, Minnesota, USA
METAR KAEL 211535Z AUTO 00000KT 10SM SCT070 06/M02 A3040 RMK AO2
Observed Flight Rules
Apr-21 @ 15:35 UTC (5 minutes ago) Visual Flight Rules
Visibility Clouds
10 miles
  • Scattered at 7,000' AGL
Temperatures Readings
Current 6°C / 43°F
Dewpoint -2°C / 28°F
Humidity 57%
Altimeter 30.4" Hg
Pressure 1029 hPa
Elevation 383
METAR KAEL 211535Z AUTO 00000KT 10SM SCT070 06/M02 A3040 RMK AO2
Observed Flight Rules
Apr-21 @ 15:35 UTC
(5 minutes ago)
VFR
Clouds
  • Scattered at 7,000' AGL
Temperature Dewpoint
6°C / 43°F -2°C / 28°F
Humidity Altimeter Pressure
57% 30.4" Hg 1029 hPa